createdAt,value
2023-02-26T00:00:51.243Z,87010.00
2023-02-26T00:01:51.259Z,87008.00
2023-02-26T00:02:51.202Z,87004.00
2023-02-26T00:03:51.162Z,87008.00
2023-02-26T00:04:51.136Z,87010.00
2023-02-26T00:05:51.121Z,87004.00
2023-02-26T00:06:51.086Z,87006.00
2023-02-26T00:07:51.057Z,87006.00
2023-02-26T00:08:51.038Z,87006.00
2023-02-26T00:09:51.021Z,87008.00
2023-02-26T00:10:50.995Z,87010.00
2023-02-26T00:11:50.989Z,87004.00
2023-02-26T00:12:50.954Z,87006.00
2023-02-26T00:13:50.935Z,87006.00
2023-02-26T00:14:50.925Z,87006.00
2023-02-26T00:15:50.896Z,87004.00
2023-02-26T00:16:50.878Z,87004.00
2023-02-26T00:17:50.839Z,87002.00
2023-02-26T00:18:50.830Z,87000.00
2023-02-26T00:19:50.796Z,86994.00
2023-02-26T00:20:50.766Z,86998.00
2023-02-26T00:21:50.731Z,86996.00
2023-02-26T00:22:50.706Z,86994.00
2023-02-26T00:23:50.680Z,86990.00
2023-02-26T00:24:50.666Z,86988.00
2023-02-26T00:25:50.621Z,86992.00
2023-02-26T00:26:50.598Z,86992.00
2023-02-26T00:27:50.576Z,86992.00
2023-02-26T00:28:50.546Z,86988.00
2023-02-26T00:29:50.543Z,86988.00
2023-02-26T00:30:50.506Z,86984.00
2023-02-26T00:31:50.571Z,86986.00
2023-02-26T00:32:50.439Z,86988.00
2023-02-26T00:33:50.408Z,86986.00
2023-02-26T00:34:50.391Z,86988.00
2023-02-26T00:35:50.356Z,86988.00
2023-02-26T00:36:50.330Z,86992.00
2023-02-26T00:37:50.296Z,86998.00
2023-02-26T00:38:50.278Z,86996.00
2023-02-26T00:39:50.245Z,86994.00
2023-02-26T00:40:50.222Z,86998.00
2023-02-26T00:41:50.191Z,86994.00
2023-02-26T00:42:50.161Z,87002.00
2023-02-26T00:43:50.130Z,87000.00
2023-02-26T00:44:50.121Z,86998.00
2023-02-26T00:45:50.105Z,86998.00
2023-02-26T00:46:50.057Z,87000.00
2023-02-26T00:47:50.037Z,87004.00
2023-02-26T00:48:49.993Z,87002.00
2023-02-26T00:49:49.970Z,87002.00
2023-02-26T00:50:49.931Z,87002.00
2023-02-26T00:51:49.905Z,87000.00
2023-02-26T00:52:49.869Z,86998.00
2023-02-26T00:53:49.844Z,86998.00
2023-02-26T00:54:49.815Z,86998.00
2023-02-26T00:55:49.796Z,86996.00
2023-02-26T00:56:49.783Z,86994.00
2023-02-26T00:57:49.727Z,86992.00
2023-02-26T00:58:49.697Z,86998.00
2023-02-26T00:59:49.673Z,86996.00
2023-02-26T01:00:49.649Z,86992.00
2023-02-26T01:01:49.643Z,86992.00
2023-02-26T01:02:49.586Z,86990.00
2023-02-26T01:03:49.606Z,86992.00
2023-02-26T01:04:49.546Z,86988.00
2023-02-26T01:05:49.521Z,86986.00
2023-02-26T01:06:49.473Z,86982.00
2023-02-26T01:07:49.458Z,86982.00
2023-02-26T01:08:49.412Z,86979.00
2023-02-26T01:09:49.388Z,86981.00
2023-02-26T01:10:49.377Z,86979.00
2023-02-26T01:11:49.346Z,86979.00
2023-02-26T01:12:49.328Z,86975.00
2023-02-26T01:13:49.266Z,86977.00
2023-02-26T01:14:49.241Z,86977.00
2023-02-26T01:15:49.244Z,86975.00
2023-02-26T01:16:49.179Z,86971.00
2023-02-26T01:17:49.164Z,86969.00
2023-02-26T01:18:49.127Z,86967.00
2023-02-26T01:19:49.112Z,86969.00
2023-02-26T01:20:49.085Z,86971.00
2023-02-26T01:21:49.061Z,86969.00
2023-02-26T01:22:49.041Z,86971.00
2023-02-26T01:23:49.002Z,86967.00
2023-02-26T01:24:48.987Z,86963.00
2023-02-26T01:25:48.975Z,86963.00
2023-02-26T01:26:48.923Z,86961.00
2023-02-26T01:27:48.883Z,86965.00
2023-02-26T01:28:48.869Z,86967.00
2023-02-26T01:29:48.855Z,86967.00
2023-02-26T01:30:49.010Z,86967.00
2023-02-26T01:31:49.009Z,86971.00
2023-02-26T01:32:48.776Z,86973.00
2023-02-26T01:33:48.725Z,86971.00
2023-02-26T01:34:48.697Z,86973.00
2023-02-26T01:35:48.669Z,86975.00
2023-02-26T01:36:48.662Z,86977.00
2023-02-26T01:37:48.632Z,86981.00
2023-02-26T01:38:48.590Z,86979.00
2023-02-26T01:39:48.571Z,86975.00
2023-02-26T01:40:48.541Z,86973.00
2023-02-26T01:41:48.517Z,86973.00
2023-02-26T01:42:48.502Z,86975.00
2023-02-26T01:43:48.470Z,86975.00
2023-02-26T01:44:48.442Z,86969.00
2023-02-26T01:45:48.426Z,86967.00
2023-02-26T01:46:48.479Z,86971.00
2023-02-26T01:47:48.448Z,86973.00
2023-02-26T01:48:48.345Z,86973.00
2023-02-26T01:49:48.323Z,86967.00
2023-02-26T01:50:48.302Z,86967.00
2023-02-26T01:51:48.310Z,86963.00
2023-02-26T01:52:48.277Z,86967.00
2023-02-26T01:53:48.218Z,86965.00
2023-02-26T01:54:48.194Z,86965.00
2023-02-26T01:55:48.180Z,86965.00
2023-02-26T01:56:48.156Z,86963.00
2023-02-26T01:57:48.120Z,86967.00
2023-02-26T01:58:48.097Z,86969.00
2023-02-26T01:59:48.103Z,86969.00
2023-02-26T02:00:48.059Z,86973.00
2023-02-26T02:01:48.036Z,86971.00
2023-02-26T02:02:48.222Z,86973.00
2023-02-26T02:03:48.007Z,86977.00
2023-02-26T02:04:47.972Z,86975.00
2023-02-26T02:05:47.936Z,86977.00
2023-02-26T02:06:47.907Z,86977.00
2023-02-26T02:07:47.892Z,86973.00
2023-02-26T02:08:47.864Z,86965.00
2023-02-26T02:09:47.836Z,86973.00
2023-02-26T02:10:47.803Z,86973.00
2023-02-26T02:11:47.793Z,86973.00
2023-02-26T02:12:47.758Z,86971.00
2023-02-26T02:13:47.738Z,86971.00
2023-02-26T02:14:47.704Z,86971.00
2023-02-26T02:15:47.699Z,86971.00
2023-02-26T02:16:47.765Z,86975.00
2023-02-26T02:17:47.677Z,86975.00
2023-02-26T02:18:47.635Z,86975.00
2023-02-26T02:19:47.600Z,86977.00
2023-02-26T02:20:47.570Z,86981.00
2023-02-26T02:21:47.545Z,86982.00
2023-02-26T02:22:47.532Z,86979.00
2023-02-26T02:23:47.511Z,86979.00
2023-02-26T02:24:47.477Z,86977.00
2023-02-26T02:25:47.463Z,86981.00
2023-02-26T02:26:47.440Z,86982.00
2023-02-26T02:27:47.415Z,86981.00
2023-02-26T02:28:47.387Z,86981.00
2023-02-26T02:29:47.379Z,86981.00
2023-02-26T02:30:47.374Z,86979.00
2023-02-26T02:31:47.468Z,86981.00
2023-02-26T02:32:47.364Z,86981.00
2023-02-26T02:33:47.278Z,86981.00
2023-02-26T02:34:47.257Z,86979.00
2023-02-26T02:35:47.224Z,86981.00
2023-02-26T02:36:47.210Z,86986.00
2023-02-26T02:37:47.172Z,86990.00
2023-02-26T02:38:47.140Z,86990.00
2023-02-26T02:39:47.140Z,86986.00
2023-02-26T02:40:47.108Z,86988.00
2023-02-26T02:41:47.067Z,86984.00
2023-02-26T02:42:47.048Z,86990.00
2023-02-26T02:43:47.028Z,86988.00
2023-02-26T02:44:47.007Z,86984.00
2023-02-26T02:45:47.010Z,86984.00
2023-02-26T02:46:47.060Z,86982.00
2023-02-26T02:47:46.931Z,86984.00
2023-02-26T02:48:46.905Z,86984.00
2023-02-26T02:49:46.896Z,86981.00
2023-02-26T02:50:46.867Z,86981.00
2023-02-26T02:51:46.849Z,86984.00
2023-02-26T02:52:46.820Z,86984.00
2023-02-26T02:53:46.773Z,86986.00
2023-02-26T02:54:46.740Z,86986.00
2023-02-26T02:55:46.708Z,86990.00
2023-02-26T02:56:46.682Z,86984.00
2023-02-26T02:57:46.656Z,86984.00
2023-02-26T02:58:46.618Z,86990.00
2023-02-26T02:59:46.594Z,86988.00
2023-02-26T03:00:46.570Z,86988.00
2023-02-26T03:01:46.538Z,86988.00
2023-02-26T03:02:46.564Z,86990.00
2023-02-26T03:03:46.481Z,86988.00
2023-02-26T03:04:46.463Z,86994.00
2023-02-26T03:05:46.426Z,86994.00
2023-02-26T03:06:46.413Z,86996.00
2023-02-26T03:07:46.460Z,86992.00
2023-02-26T03:08:46.340Z,86986.00
2023-02-26T03:09:46.317Z,86992.00
2023-02-26T03:10:46.296Z,86992.00
2023-02-26T03:11:46.264Z,86990.00
2023-02-26T03:12:46.245Z,86986.00
2023-02-26T03:13:46.218Z,86986.00
2023-02-26T03:14:46.194Z,86992.00
2023-02-26T03:15:46.168Z,86988.00
2023-02-26T03:16:46.163Z,86988.00
2023-02-26T03:17:46.118Z,86990.00
2023-02-26T03:18:46.124Z,86988.00
2023-02-26T03:19:46.075Z,86990.00
2023-02-26T03:20:46.057Z,86994.00
2023-02-26T03:21:46.037Z,86994.00
2023-02-26T03:22:46.007Z,86996.00
2023-02-26T03:23:45.979Z,86994.00
2023-02-26T03:24:45.960Z,86992.00
2023-02-26T03:25:45.926Z,86988.00
2023-02-26T03:26:45.892Z,86996.00
2023-02-26T03:27:45.860Z,86990.00
2023-02-26T03:28:45.841Z,86986.00
2023-02-26T03:29:45.814Z,86984.00
2023-02-26T03:30:45.782Z,86990.00
2023-02-26T03:31:45.830Z,86994.00
2023-02-26T03:32:45.719Z,86996.00
2023-02-26T03:33:45.691Z,86994.00
2023-02-26T03:34:45.670Z,86988.00
2023-02-26T03:35:45.644Z,86992.00
2023-02-26T03:36:45.621Z,86994.00
2023-02-26T03:37:45.590Z,86994.00
2023-02-26T03:38:45.562Z,86996.00
2023-02-26T03:39:45.533Z,86994.00
2023-02-26T03:40:45.513Z,86996.00
2023-02-26T03:41:45.477Z,86998.00
2023-02-26T03:42:45.448Z,87000.00
2023-02-26T03:43:45.445Z,86994.00
2023-02-26T03:44:45.404Z,86998.00
2023-02-26T03:45:45.420Z,86998.00
2023-02-26T03:46:45.346Z,86996.00
2023-02-26T03:47:45.315Z,87000.00
2023-02-26T03:48:45.390Z,87002.00
2023-02-26T03:49:45.296Z,86994.00
2023-02-26T03:50:45.250Z,86990.00
2023-02-26T03:51:45.204Z,86988.00
2023-02-26T03:52:45.199Z,86988.00
2023-02-26T03:53:45.164Z,86992.00
2023-02-26T03:54:45.129Z,87000.00
2023-02-26T03:55:45.088Z,87000.00
2023-02-26T03:56:45.074Z,86994.00
2023-02-26T03:57:45.049Z,86994.00
2023-02-26T03:58:45.010Z,86996.00
2023-02-26T03:59:44.978Z,86996.00
2023-02-26T04:00:44.967Z,87000.00
2023-02-26T04:01:44.923Z,86998.00
2023-02-26T04:02:44.915Z,87000.00
2023-02-26T04:03:44.879Z,87006.00
2023-02-26T04:04:44.852Z,87002.00
2023-02-26T04:05:44.816Z,87010.00
2023-02-26T04:06:44.789Z,87010.00
2023-02-26T04:07:44.764Z,87010.00
2023-02-26T04:08:44.736Z,87010.00
2023-02-26T04:09:44.707Z,87010.00
2023-02-26T04:10:44.671Z,87006.00
2023-02-26T04:11:44.644Z,87014.00
2023-02-26T04:12:44.627Z,87010.00
2023-02-26T04:13:44.598Z,87012.00
2023-02-26T04:14:44.567Z,87010.00
2023-02-26T04:15:44.523Z,87010.00
2023-02-26T04:16:44.530Z,87010.00
2023-02-26T04:17:44.480Z,87010.00
2023-02-26T04:18:44.440Z,87004.00
2023-02-26T04:19:44.414Z,87004.00
2023-02-26T04:20:44.390Z,87004.00
2023-02-26T04:21:44.360Z,87008.00
2023-02-26T04:22:44.345Z,87010.00
2023-02-26T04:23:44.310Z,87012.00
2023-02-26T04:24:44.300Z,87014.00
2023-02-26T04:25:44.256Z,87012.00
2023-02-26T04:26:44.236Z,87010.00
2023-02-26T04:27:44.201Z,87014.00
2023-02-26T04:28:44.177Z,87008.00
2023-02-26T04:29:44.199Z,87014.00
2023-02-26T04:30:44.148Z,87008.00
2023-02-26T04:31:44.162Z,87004.00
2023-02-26T04:32:44.065Z,87006.00
2023-02-26T04:33:44.042Z,87000.00
2023-02-26T04:34:44.017Z,87000.00
2023-02-26T04:35:43.994Z,87002.00
2023-02-26T04:36:43.953Z,86994.00
2023-02-26T04:37:43.932Z,86998.00
2023-02-26T04:38:43.892Z,86996.00
2023-02-26T04:39:43.880Z,86996.00
2023-02-26T04:40:43.858Z,86996.00
2023-02-26T04:41:43.821Z,86990.00
2023-02-26T04:42:45.812Z,86990.00
2023-02-26T04:43:43.767Z,86992.00
2023-02-26T04:44:43.756Z,86994.00
2023-02-26T04:45:43.724Z,86998.00
2023-02-26T04:46:43.726Z,86992.00
2023-02-26T04:47:43.665Z,86992.00
2023-02-26T04:48:43.653Z,86994.00
2023-02-26T04:49:43.617Z,86992.00
2023-02-26T04:50:43.601Z,87000.00
2023-02-26T04:51:43.561Z,87000.00
2023-02-26T04:52:43.530Z,86996.00
2023-02-26T04:53:43.509Z,86994.00
2023-02-26T04:54:43.476Z,86998.00
2023-02-26T04:55:43.454Z,86996.00
2023-02-26T04:56:43.429Z,87004.00
2023-02-26T04:57:43.404Z,87006.00
2023-02-26T04:58:43.370Z,87004.00
2023-02-26T04:59:43.339Z,87004.00
2023-02-26T05:00:43.319Z,87008.00
2023-02-26T05:01:43.354Z,87010.00
2023-02-26T05:02:43.262Z,87014.00
2023-02-26T05:03:43.237Z,87008.00
2023-02-26T05:04:43.252Z,87010.00
2023-02-26T05:05:43.193Z,87008.00
2023-02-26T05:06:43.185Z,87008.00
2023-02-26T05:07:43.152Z,87014.00
2023-02-26T05:08:43.206Z,87012.00
2023-02-26T05:09:43.104Z,87008.00
2023-02-26T05:10:43.091Z,87006.00
2023-02-26T05:11:43.050Z,87008.00
2023-02-26T05:12:43.029Z,87016.00
2023-02-26T05:13:43.000Z,87016.00
2023-02-26T05:14:42.990Z,87010.00
2023-02-26T05:15:42.979Z,87010.00
2023-02-26T05:16:42.948Z,87008.00
2023-02-26T05:17:42.902Z,87012.00
2023-02-26T05:18:42.891Z,87012.00
2023-02-26T05:19:42.860Z,87012.00
2023-02-26T05:20:42.836Z,87012.00
2023-02-26T05:21:42.813Z,87018.00
2023-02-26T05:22:42.797Z,87012.00
2023-02-26T05:23:42.772Z,87016.00
2023-02-26T05:24:42.747Z,87022.00
2023-02-26T05:25:42.726Z,87020.00
2023-02-26T05:26:42.698Z,87020.00
2023-02-26T05:27:42.687Z,87020.00
2023-02-26T05:28:42.649Z,87016.00
2023-02-26T05:29:42.631Z,87014.00
2023-02-26T05:30:42.636Z,87020.00
2023-02-26T05:31:42.727Z,87014.00
2023-02-26T05:32:42.584Z,87016.00
2023-02-26T05:33:42.553Z,87012.00
2023-02-26T05:34:42.537Z,87008.00
2023-02-26T05:35:42.517Z,87016.00
2023-02-26T05:36:42.486Z,87018.00
2023-02-26T05:37:42.460Z,87012.00
2023-02-26T05:38:42.445Z,87012.00
2023-02-26T05:39:42.412Z,87012.00
2023-02-26T05:40:42.421Z,87012.00
2023-02-26T05:41:42.378Z,87014.00
2023-02-26T05:42:42.346Z,87020.00
2023-02-26T05:43:42.319Z,87020.00
2023-02-26T05:44:42.298Z,87016.00
2023-02-26T05:45:42.281Z,87018.00
2023-02-26T05:46:42.266Z,87020.00
2023-02-26T05:47:42.227Z,87026.00
2023-02-26T05:48:44.177Z,87020.00
2023-02-26T05:49:42.170Z,87022.00
2023-02-26T05:50:42.154Z,87022.00
2023-02-26T05:51:42.125Z,87024.00
2023-02-26T05:52:42.102Z,87028.00
2023-02-26T05:53:42.073Z,87028.00
2023-02-26T05:54:42.058Z,87028.00
2023-02-26T05:55:42.030Z,87028.00
2023-02-26T05:56:42.012Z,87026.00
2023-02-26T05:57:41.975Z,87030.00
2023-02-26T05:58:41.973Z,87036.00
2023-02-26T05:59:41.950Z,87036.00
2023-02-26T06:00:41.901Z,87036.00
2023-02-26T06:01:41.904Z,87036.00
2023-02-26T06:02:41.902Z,87034.00
2023-02-26T06:03:41.830Z,87034.00
2023-02-26T06:04:41.810Z,87037.00
2023-02-26T06:05:41.766Z,87039.00
2023-02-26T06:06:41.749Z,87039.00
2023-02-26T06:07:41.721Z,87039.00
2023-02-26T06:08:41.698Z,87039.00
2023-02-26T06:09:41.668Z,87045.00
2023-02-26T06:10:41.639Z,87051.00
2023-02-26T06:11:41.617Z,87047.00
2023-02-26T06:12:41.590Z,87049.00
2023-02-26T06:13:41.562Z,87045.00
2023-02-26T06:14:41.546Z,87045.00
2023-02-26T06:15:41.520Z,87055.00
2023-02-26T06:16:41.567Z,87055.00
2023-02-26T06:17:41.483Z,87055.00
2023-02-26T06:18:41.455Z,87055.00
2023-02-26T06:19:41.444Z,87053.00
2023-02-26T06:20:41.414Z,87057.00
2023-02-26T06:21:41.395Z,87061.00
2023-02-26T06:22:41.368Z,87065.00
2023-02-26T06:23:41.345Z,87069.00
2023-02-26T06:24:41.319Z,87069.00
2023-02-26T06:25:41.296Z,87069.00
2023-02-26T06:26:41.271Z,87067.00
2023-02-26T06:27:41.255Z,87069.00
2023-02-26T06:28:41.221Z,87075.00
2023-02-26T06:29:41.200Z,87075.00
2023-02-26T06:30:41.214Z,87075.00
2023-02-26T06:31:41.351Z,87077.00
2023-02-26T06:32:41.161Z,87081.00
2023-02-26T06:33:41.092Z,87083.00
2023-02-26T06:34:41.075Z,87081.00
2023-02-26T06:35:41.037Z,87079.00
2023-02-26T06:36:41.036Z,87079.00
2023-02-26T06:37:40.997Z,87077.00
2023-02-26T06:38:40.959Z,87087.00
2023-02-26T06:39:40.922Z,87085.00
2023-02-26T06:40:40.901Z,87081.00
2023-02-26T06:41:40.872Z,87083.00
2023-02-26T06:42:40.850Z,87085.00
2023-02-26T06:43:40.814Z,87085.00
2023-02-26T06:44:40.788Z,87092.00
2023-02-26T06:45:40.866Z,87094.00
2023-02-26T06:46:40.730Z,87094.00
2023-02-26T06:47:40.711Z,87096.00
2023-02-26T06:48:40.670Z,87098.00
2023-02-26T06:49:40.639Z,87098.00
2023-02-26T06:50:40.632Z,87098.00
2023-02-26T06:51:40.579Z,87098.00
2023-02-26T06:52:40.560Z,87100.00
2023-02-26T06:53:40.542Z,87100.00
2023-02-26T06:54:40.500Z,87096.00
2023-02-26T06:55:40.472Z,87100.00
2023-02-26T06:56:40.451Z,87104.00
2023-02-26T06:57:40.436Z,87104.00
2023-02-26T06:58:40.401Z,87108.00
2023-02-26T06:59:40.364Z,87108.00
2023-02-26T07:00:40.337Z,87114.00
2023-02-26T07:01:40.307Z,87120.00
2023-02-26T07:02:40.303Z,87122.00
2023-02-26T07:03:40.265Z,87122.00
2023-02-26T07:04:40.227Z,87122.00
2023-02-26T07:05:40.201Z,87120.00
2023-02-26T07:06:40.619Z,87122.00
2023-02-26T07:07:40.132Z,87120.00
2023-02-26T07:08:40.111Z,87124.00
2023-02-26T07:09:40.076Z,87122.00
2023-02-26T07:10:40.050Z,87122.00
2023-02-26T07:11:40.035Z,87124.00
2023-02-26T07:12:40.005Z,87126.00
2023-02-26T07:13:39.974Z,87126.00
2023-02-26T07:14:39.954Z,87128.00
2023-02-26T07:15:39.938Z,87128.00
2023-02-26T07:16:39.960Z,87128.00
2023-02-26T07:17:39.888Z,87130.00
2023-02-26T07:18:39.869Z,87134.00
2023-02-26T07:19:39.905Z,87139.00
2023-02-26T07:20:39.829Z,87143.00
2023-02-26T07:21:39.786Z,87139.00
2023-02-26T07:22:39.771Z,87139.00
2023-02-26T07:23:39.742Z,87141.00
2023-02-26T07:24:39.695Z,87145.00
2023-02-26T07:25:39.682Z,87145.00
2023-02-26T07:26:39.688Z,87147.00
2023-02-26T07:27:40.182Z,87149.00
2023-02-26T07:28:39.595Z,87153.00
2023-02-26T07:29:39.553Z,87153.00
2023-02-26T07:30:39.574Z,87153.00
2023-02-26T07:31:39.549Z,87155.00
2023-02-26T07:32:39.451Z,87155.00
2023-02-26T07:33:39.424Z,87155.00
2023-02-26T07:34:39.402Z,87159.00
2023-02-26T07:35:39.361Z,87161.00
2023-02-26T07:36:39.328Z,87163.00
2023-02-26T07:37:39.305Z,87163.00
2023-02-26T07:38:39.270Z,87163.00
2023-02-26T07:39:39.233Z,87165.00
2023-02-26T07:40:39.190Z,87161.00
2023-02-26T07:41:39.174Z,87163.00
2023-02-26T07:42:39.126Z,87161.00
2023-02-26T07:43:39.088Z,87165.00
2023-02-26T07:44:39.054Z,87167.00
2023-02-26T07:45:39.023Z,87169.00
2023-02-26T07:46:39.025Z,87173.00
2023-02-26T07:47:38.973Z,87175.00
2023-02-26T07:48:38.955Z,87173.00
2023-02-26T07:49:38.925Z,87173.00
2023-02-26T07:50:38.888Z,87171.00
2023-02-26T07:51:38.870Z,87163.00
2023-02-26T07:52:38.824Z,87169.00
2023-02-26T07:53:38.802Z,87173.00
2023-02-26T07:54:38.765Z,87173.00
2023-02-26T07:55:38.737Z,87175.00
2023-02-26T07:56:38.703Z,87177.00
2023-02-26T07:57:38.668Z,87183.00
2023-02-26T07:58:38.643Z,87181.00
2023-02-26T07:59:38.624Z,87179.00
2023-02-26T08:00:38.585Z,87181.00
2023-02-26T08:01:38.578Z,87179.00
2023-02-26T08:02:38.525Z,87181.00
2023-02-26T08:03:38.507Z,87192.00
2023-02-26T08:04:38.525Z,87183.00
2023-02-26T08:05:38.447Z,87183.00
2023-02-26T08:06:38.415Z,87192.00
2023-02-26T08:07:38.386Z,87192.00
2023-02-26T08:08:38.358Z,87192.00
2023-02-26T08:09:38.346Z,87198.00
2023-02-26T08:10:40.488Z,87196.00
2023-02-26T08:11:38.286Z,87201.00
2023-02-26T08:12:38.248Z,87201.00
2023-02-26T08:13:38.217Z,87203.00
2023-02-26T08:14:38.182Z,87205.00
2023-02-26T08:15:38.169Z,87201.00
2023-02-26T08:16:38.127Z,87199.00
2023-02-26T08:17:38.098Z,87199.00
2023-02-26T08:18:38.096Z,87198.00
2023-02-26T08:19:38.043Z,87198.00
2023-02-26T08:20:38.009Z,87199.00
2023-02-26T08:21:37.988Z,87203.00
2023-02-26T08:22:37.962Z,87203.00
2023-02-26T08:23:37.941Z,87201.00
2023-02-26T08:24:37.925Z,87201.00
2023-02-26T08:25:37.884Z,87203.00
2023-02-26T08:26:37.860Z,87207.00
2023-02-26T08:27:37.820Z,87209.00
2023-02-26T08:28:37.784Z,87213.00
2023-02-26T08:29:37.765Z,87213.00
2023-02-26T08:30:37.792Z,87215.00
2023-02-26T08:31:37.790Z,87219.00
2023-02-26T08:32:37.747Z,87223.00
2023-02-26T08:33:37.643Z,87223.00
2023-02-26T08:34:37.614Z,87221.00
2023-02-26T08:35:37.578Z,87221.00
2023-02-26T08:36:37.548Z,87223.00
2023-02-26T08:37:37.531Z,87225.00
2023-02-26T08:38:37.489Z,87225.00
2023-02-26T08:39:37.462Z,87229.00
2023-02-26T08:40:37.438Z,87227.00
2023-02-26T08:41:37.398Z,87231.00
2023-02-26T08:42:37.359Z,87237.00
2023-02-26T08:43:37.340Z,87237.00
2023-02-26T08:44:37.314Z,87233.00
2023-02-26T08:45:37.277Z,87233.00
2023-02-26T08:46:37.267Z,87239.00
2023-02-26T08:47:39.589Z,87243.00
2023-02-26T08:48:38.191Z,87239.00
2023-02-26T08:49:37.150Z,87237.00
2023-02-26T08:50:37.125Z,87237.00
2023-02-26T08:51:37.095Z,87239.00
2023-02-26T08:52:37.059Z,87237.00
2023-02-26T08:53:37.045Z,87241.00
2023-02-26T08:54:37.005Z,87241.00
2023-02-26T08:55:36.988Z,87235.00
2023-02-26T08:56:36.941Z,87229.00
2023-02-26T08:57:36.908Z,87231.00
2023-02-26T08:58:36.875Z,87233.00
2023-02-26T08:59:36.852Z,87241.00
2023-02-26T09:00:36.812Z,87239.00
2023-02-26T09:01:36.911Z,87243.00
2023-02-26T09:02:36.758Z,87245.00
2023-02-26T09:03:36.718Z,87247.00
2023-02-26T09:04:36.703Z,87247.00
2023-02-26T09:05:36.665Z,87247.00
2023-02-26T09:06:36.628Z,87241.00
2023-02-26T09:07:36.592Z,87245.00
2023-02-26T09:08:36.560Z,87247.00
2023-02-26T09:09:36.532Z,87247.00
2023-02-26T09:10:36.503Z,87245.00
2023-02-26T09:11:36.456Z,87245.00
2023-02-26T09:12:36.418Z,87243.00
2023-02-26T09:13:36.391Z,87243.00
2023-02-26T09:14:36.347Z,87239.00
2023-02-26T09:15:36.358Z,87247.00
2023-02-26T09:16:36.365Z,87243.00
2023-02-26T09:17:36.241Z,87245.00
2023-02-26T09:18:36.194Z,87247.00
2023-02-26T09:19:36.168Z,87241.00
2023-02-26T09:20:36.137Z,87243.00
2023-02-26T09:21:36.109Z,87243.00
2023-02-26T09:22:36.063Z,87243.00
2023-02-26T09:23:36.032Z,87243.00
2023-02-26T09:24:36.085Z,87239.00
2023-02-26T09:25:35.976Z,87247.00
2023-02-26T09:26:35.954Z,87247.00
2023-02-26T09:27:35.920Z,87247.00
2023-02-26T09:28:35.928Z,87241.00
2023-02-26T09:29:35.850Z,87241.00
2023-02-26T09:30:35.819Z,87241.00
2023-02-26T09:31:35.916Z,87241.00
2023-02-26T09:32:35.852Z,87247.00
2023-02-26T09:33:35.720Z,87247.00
2023-02-26T09:34:35.684Z,87251.00
2023-02-26T09:35:35.670Z,87254.00
2023-02-26T09:36:35.622Z,87258.00
2023-02-26T09:37:35.604Z,87251.00
2023-02-26T09:38:35.557Z,87254.00
2023-02-26T09:39:35.524Z,87249.00
2023-02-26T09:40:35.498Z,87249.00
2023-02-26T09:41:35.461Z,87251.00
2023-02-26T09:42:35.411Z,87247.00
2023-02-26T09:43:35.393Z,87241.00
2023-02-26T09:44:35.352Z,87241.00
2023-02-26T09:45:35.368Z,87239.00
2023-02-26T09:46:35.278Z,87243.00
2023-02-26T09:47:35.246Z,87239.00
2023-02-26T09:48:35.211Z,87241.00
2023-02-26T09:49:35.183Z,87249.00
2023-02-26T09:50:35.167Z,87239.00
2023-02-26T09:51:35.113Z,87245.00
2023-02-26T09:52:35.085Z,87241.00
2023-02-26T09:53:35.042Z,87241.00
2023-02-26T09:54:35.007Z,87241.00
2023-02-26T09:55:34.970Z,87243.00
2023-02-26T09:56:34.939Z,87241.00
2023-02-26T09:57:34.891Z,87241.00
2023-02-26T09:58:34.852Z,87241.00
2023-02-26T09:59:34.841Z,87247.00
2023-02-26T10:00:34.826Z,87249.00
2023-02-26T10:01:34.774Z,87237.00
2023-02-26T10:02:34.706Z,87235.00
2023-02-26T10:03:34.675Z,87233.00
2023-02-26T10:04:34.711Z,87229.00
2023-02-26T10:05:34.587Z,87229.00
2023-02-26T10:06:34.547Z,87235.00
2023-02-26T10:07:34.504Z,87229.00
2023-02-26T10:08:34.467Z,87231.00
2023-02-26T10:09:34.440Z,87231.00
2023-02-26T10:10:34.386Z,87231.00
2023-02-26T10:11:34.353Z,87233.00
2023-02-26T10:12:34.300Z,87233.00
2023-02-26T10:13:36.780Z,87235.00
2023-02-26T10:14:34.247Z,87229.00
2023-02-26T10:15:34.193Z,87229.00
2023-02-26T10:16:34.170Z,87225.00
2023-02-26T10:17:34.128Z,87213.00
2023-02-26T10:18:34.075Z,87215.00
2023-02-26T10:19:34.037Z,87215.00
2023-02-26T10:20:34.060Z,87213.00
2023-02-26T10:21:33.971Z,87213.00
2023-02-26T10:22:33.929Z,87217.00
2023-02-26T10:23:33.887Z,87217.00
2023-02-26T10:24:33.842Z,87225.00
2023-02-26T10:25:33.811Z,87225.00
2023-02-26T10:26:33.778Z,87231.00
2023-02-26T10:27:33.744Z,87239.00
2023-02-26T10:28:33.696Z,87243.00
2023-02-26T10:29:33.661Z,87243.00
2023-02-26T10:30:33.662Z,87243.00
2023-02-26T10:31:33.624Z,87243.00
2023-02-26T10:32:33.720Z,87251.00
2023-02-26T10:33:33.496Z,87249.00
2023-02-26T10:34:33.460Z,87268.00
2023-02-26T10:35:33.424Z,87264.00
2023-02-26T10:36:33.383Z,87264.00
2023-02-26T10:37:33.346Z,87268.00
2023-02-26T10:38:33.315Z,87268.00
2023-02-26T10:39:33.282Z,87264.00
2023-02-26T10:40:33.231Z,87262.00
2023-02-26T10:41:33.201Z,87264.00
2023-02-26T10:42:33.203Z,87270.00
2023-02-26T10:43:33.144Z,87272.00
2023-02-26T10:44:33.101Z,87278.00
2023-02-26T10:45:33.078Z,87282.00
2023-02-26T10:46:33.037Z,87284.00
2023-02-26T10:47:32.993Z,87280.00
2023-02-26T10:48:32.958Z,87280.00
2023-02-26T10:49:32.924Z,87282.00
2023-02-26T10:50:32.889Z,87288.00
2023-02-26T10:51:32.851Z,87288.00
2023-02-26T10:52:32.806Z,87292.00
2023-02-26T10:53:32.777Z,87296.00
2023-02-26T10:54:32.747Z,87298.00
2023-02-26T10:55:32.717Z,87300.00
2023-02-26T10:56:32.677Z,87302.00
2023-02-26T10:57:32.635Z,87306.00
2023-02-26T10:58:32.608Z,87308.00
2023-02-26T10:59:32.567Z,87311.00
2023-02-26T11:00:32.531Z,87304.00
2023-02-26T11:01:32.604Z,87300.00
2023-02-26T11:02:32.493Z,87302.00
2023-02-26T11:03:32.437Z,87304.00
2023-02-26T11:04:32.403Z,87306.00
2023-02-26T11:05:32.376Z,87304.00
2023-02-26T11:06:32.331Z,87308.00
2023-02-26T11:07:32.498Z,87300.00
2023-02-26T11:08:32.261Z,87302.00
2023-02-26T11:09:32.233Z,87306.00
2023-02-26T11:10:32.194Z,87304.00
2023-02-26T11:11:32.158Z,87309.00
2023-02-26T11:12:32.122Z,87304.00
2023-02-26T11:13:32.084Z,87300.00
2023-02-26T11:14:32.051Z,87298.00
2023-02-26T11:15:32.015Z,87300.00
2023-02-26T11:16:31.987Z,87298.00
2023-02-26T11:17:31.951Z,87302.00
2023-02-26T11:18:31.919Z,87300.00
2023-02-26T11:19:31.882Z,87302.00
2023-02-26T11:20:31.840Z,87298.00
2023-02-26T11:21:31.810Z,87296.00
2023-02-26T11:22:31.755Z,87294.00
2023-02-26T11:23:31.722Z,87294.00
2023-02-26T11:24:31.677Z,87298.00
2023-02-26T11:25:31.637Z,87302.00
2023-02-26T11:26:31.592Z,87298.00
2023-02-26T11:27:31.566Z,87296.00
2023-02-26T11:28:31.513Z,87300.00
2023-02-26T11:29:31.480Z,87298.00
2023-02-26T11:30:31.482Z,87300.00
2023-02-26T11:31:31.844Z,87306.00
2023-02-26T11:32:31.427Z,87302.00
2023-02-26T11:33:31.325Z,87302.00
2023-02-26T11:34:31.295Z,87302.00
2023-02-26T11:35:31.253Z,87306.00
2023-02-26T11:36:31.201Z,87309.00
2023-02-26T11:37:31.165Z,87313.00
2023-02-26T11:38:31.183Z,87317.00
2023-02-26T11:39:31.068Z,87315.00
2023-02-26T11:40:31.035Z,87317.00
2023-02-26T11:41:30.999Z,87313.00
2023-02-26T11:42:30.965Z,87309.00
2023-02-26T11:43:30.918Z,87302.00
2023-02-26T11:44:30.888Z,87309.00